Time;durP1;ratioP1;P1;durP2;ratioP2;P2;SDS_P1;SDS_P2;PMS_P1;PMS_P2;Temp;Humidity;BMP_temperature;BMP_pressure;BME280_temperature;BME280_humidity;BME280_pressure;Samples;Min_cycle;Max_cycle;Signal;HPM_P1;HPM_P2
2022/08/02 00:01:20;;;;;;;2.70;1.50;;;;;;;-148.56;100.00;61375.16;4942262;28;20022;-32
2022/08/02 00:03:46;;;;;;;3.13;1.50;;;;;;;-148.56;100.00;61375.16;4944531;28;20394;-29
2022/08/02 00:06:11;;;;;;;3.22;1.65;;;;;;;-148.56;100.00;61375.16;4943914;28;20046;-27
2022/08/02 00:08:36;;;;;;;2.95;1.70;;;;;;;-148.56;100.00;61375.16;4943223;28;20022;-28
2022/08/02 00:11:02;;;;;;;3.35;1.70;;;;;;;-148.56;100.00;61375.16;4944716;28;20026;-30
2022/08/02 00:13:27;;;;;;;5.18;1.58;;;;;;;-148.56;100.00;61375.16;4943672;28;20413;-28
2022/08/02 00:15:53;;;;;;;4.18;1.65;;;;;;;-148.56;100.00;61375.16;4943342;28;20487;-30
2022/08/02 00:18:18;;;;;;;2.40;1.67;;;;;;;-148.56;100.00;61375.16;4946703;28;20034;-27
2022/08/02 00:20:43;;;;;;;3.75;1.80;;;;;;;-148.56;100.00;61375.16;4946429;28;20161;-29
2022/08/02 00:23:09;;;;;;;1.48;1.30;;;;;;;-148.56;100.00;61375.16;4944218;28;20030;-36
2022/08/02 00:25:34;;;;;;;2.20;1.40;;;;;;;-148.56;100.00;61375.16;4943793;28;20778;-32
2022/08/02 00:28:00;;;;;;;5.80;1.60;;;;;;;-148.56;100.00;61375.16;4940468;28;20129;-29
2022/08/02 00:30:25;;;;;;;4.95;1.38;;;;;;;-148.56;100.00;61375.16;4936346;28;20074;-26
2022/08/02 00:32:51;;;;;;;4.25;1.70;;;;;;;-148.56;100.00;61375.16;4943216;28;20026;-27
2022/08/02 00:35:16;;;;;;;3.95;1.70;;;;;;;-148.56;100.00;61375.16;4946417;28;20026;-28
2022/08/02 00:37:41;;;;;;;5.07;1.20;;;;;;;-148.56;100.00;61375.16;4941393;28;20380;-34
2022/08/02 00:40:08;;;;;;;3.35;1.52;;;;;;;-148.56;100.00;61375.16;4942408;28;20041;-31
2022/08/02 00:42:34;;;;;;;3.45;1.58;;;;;;;-148.56;100.00;61375.16;4942334;28;20030;-28
2022/08/02 00:44:59;;;;;;;2.33;1.45;;;;;;;-148.56;100.00;61375.16;4944274;28;20030;-28
2022/08/02 00:47:24;;;;;;;4.53;1.50;;;;;;;-148.56;100.00;61375.16;4944268;28;21111;-26
2022/08/02 00:49:50;;;;;;;1.80;1.40;;;;;;;-148.56;100.00;61375.16;4944354;28;20701;-28
2022/08/02 00:52:15;;;;;;;2.33;1.52;;;;;;;-148.56;100.00;61375.16;4943192;28;20034;-29
2022/08/02 00:54:40;;;;;;;2.45;1.52;;;;;;;-148.56;100.00;61375.16;4942431;28;22387;-31
2022/08/02 00:57:06;;;;;;;2.25;1.30;;;;;;;-148.56;100.00;61375.16;4940074;28;20045;-30
2022/08/02 00:59:31;;;;;;;1.98;1.10;;;;;;;-148.56;100.00;61375.16;4944704;28;20038;-30
2022/08/02 01:01:57;;;;;;;1.92;1.30;;;;;;;-148.56;100.00;61375.16;4924821;28;20031;-30
2022/08/02 01:04:22;;;;;;;3.90;1.70;;;;;;;-148.56;100.00;61375.16;4943266;28;22276;-30
2022/08/02 01:06:48;;;;;;;3.30;1.30;;;;;;;-148.56;100.00;61375.16;4944324;28;20034;-30
2022/08/02 01:09:13;;;;;;;3.58;1.40;;;;;;;-148.56;100.00;61375.16;4940947;28;20089;-30
2022/08/02 01:11:38;;;;;;;4.20;1.40;;;;;;;-148.56;100.00;61375.16;4945471;28;20654;-29
2022/08/02 01:14:08;;;;;;;3.58;1.20;;;;;;;-148.56;100.00;61375.16;4940692;28;20038;-33
2022/08/02 01:16:38;;;;;;;3.38;1.60;;;;;;;-148.56;100.00;61375.16;4920999;28;20029;-28
2022/08/02 01:19:41;;;;;;;3.58;1.38;;;;;;;-148.56;100.00;61375.16;4940699;28;20623;-28
2022/08/02 01:22:34;;;;;;;1.70;1.20;;;;;;;-148.56;100.00;61375.16;4941846;28;20126;-29
2022/08/02 01:25:11;;;;;;;1.95;1.20;;;;;;;-148.56;100.00;61375.16;4946999;28;20030;-29
2022/08/02 01:27:50;;;;;;;1.60;1.23;;;;;;;-148.56;100.00;61375.16;4940341;28;20064;-31
2022/08/02 01:30:15;;;;;;;4.10;1.23;;;;;;;-148.56;100.00;61375.16;4943904;28;20034;-29
2022/08/02 01:32:42;;;;;;;1.42;1.10;;;;;;;-148.56;100.00;61375.16;4959371;28;20076;-28
2022/08/02 01:35:14;;;;;;;1.88;1.20;;;;;;;-148.56;100.00;61375.16;4942015;28;20034;-30
2022/08/02 01:37:47;;;;;;;1.85;1.25;;;;;;;-148.56;100.00;61375.16;4944911;28;20029;-29
2022/08/02 01:40:15;;;;;;;2.53;1.17;;;;;;;-148.56;100.00;61375.16;4929525;28;20030;-29
2022/08/02 01:42:45;;;;;;;2.05;1.30;;;;;;;-148.56;100.00;61375.16;4932022;28;20253;-29
2022/08/02 01:45:10;;;;;;;2.72;1.40;;;;;;;-148.56;100.00;61375.16;4943331;28;20050;-31
2022/08/02 01:47:36;;;;;;;2.40;1.25;;;;;;;-148.56;100.00;61375.16;4924215;28;20928;-25
2022/08/02 01:50:01;;;;;;;2.60;1.33;;;;;;;-148.56;100.00;61375.16;4923425;28;20439;-32
2022/08/02 01:52:29;;;;;;;4.05;1.27;;;;;;;-148.56;100.00;61375.16;4943195;28;20030;-26
2022/08/02 01:55:05;;;;;;;2.10;1.10;;;;;;;-148.56;100.00;61375.16;4942148;28;20034;-28
2022/08/02 01:57:34;;;;;;;3.10;1.27;;;;;;;-148.56;100.00;61375.16;4945601;28;20050;-26
2022/08/02 01:59:59;;;;;;;2.22;0.90;;;;;;;-148.56;100.00;61375.16;4943253;28;23164;-31
2022/08/02 02:02:25;;;;;;;1.42;1.15;;;;;;;-148.56;100.00;61375.16;4945414;28;20032;-32
2022/08/02 02:04:51;;;;;;;3.53;1.30;;;;;;;-148.56;100.00;61375.16;4948309;28;20526;-28
2022/08/02 02:07:17;;;;;;;1.40;1.00;;;;;;;-148.56;100.00;61375.16;4941035;28;20270;-30
2022/08/02 02:09:43;;;;;;;4.18;1.20;;;;;;;-148.56;100.00;61375.16;4939310;28;20775;-26
2022/08/02 02:12:08;;;;;;;1.45;1.00;;;;;;;-148.56;100.00;61375.16;4936544;28;20037;-28
2022/08/02 02:14:33;;;;;;;5.13;1.15;;;;;;;-148.56;100.00;61375.16;4937705;28;20136;-29
2022/08/02 02:16:59;;;;;;;2.15;1.23;;;;;;;-148.56;100.00;61375.16;4942261;28;20042;-31
2022/08/02 02:19:24;;;;;;;3.42;1.40;;;;;;;-148.56;100.00;61375.16;4939234;28;20574;-33
2022/08/02 02:21:50;;;;;;;1.30;1.08;;;;;;;-148.56;100.00;61375.16;4941902;28;20027;-25
2022/08/02 02:24:15;;;;;;;3.10;1.15;;;;;;;-148.56;100.00;61375.16;4944797;28;20873;-29
2022/08/02 02:26:40;;;;;;;1.15;1.05;;;;;;;-148.56;100.00;61375.16;4943230;28;20065;-28
2022/08/02 02:29:08;;;;;;;2.40;1.10;;;;;;;-148.56;100.00;61375.16;4936091;28;20365;-31
2022/08/02 02:31:40;;;;;;;1.83;1.10;;;;;;;-148.56;100.00;61375.16;4938149;28;20057;-29
2022/08/02 02:34:39;;;;;;;3.60;0.95;;;;;;;-148.56;100.00;61375.16;4938860;28;20042;-25
2022/08/02 02:37:05;;;;;;;2.90;1.27;;;;;;;-148.56;100.00;61375.16;4937772;28;20098;-31
2022/08/02 02:39:31;;;;;;;1.73;1.08;;;;;;;-148.56;100.00;61375.16;4941531;28;20077;-26
2022/08/02 02:41:58;;;;;;;1.17;0.85;;;;;;;-148.56;100.00;61375.16;4939056;28;20023;-31
2022/08/02 02:44:23;;;;;;;2.20;1.13;;;;;;;-148.56;100.00;61375.16;4936856;28;20088;-33
2022/08/02 02:46:51;;;;;;;1.25;0.90;;;;;;;-148.56;100.00;61375.16;4941405;28;20031;-29
2022/08/02 02:49:17;;;;;;;3.25;1.15;;;;;;;-148.56;100.00;61375.16;4941667;28;20117;-29
2022/08/02 02:51:43;;;;;;;2.30;0.90;;;;;;;-148.56;100.00;61375.16;4941547;28;20026;-30
2022/08/02 02:54:08;;;;;;;2.10;1.10;;;;;;;-148.56;100.00;61375.16;4941606;28;20049;-26
2022/08/02 02:56:34;;;;;;;1.85;1.27;;;;;;;-148.56;100.00;61375.16;4932350;28;20229;-29
2022/08/02 02:59:00;;;;;;;1.58;0.98;;;;;;;-148.56;100.00;61375.16;4949044;28;20049;-29
2022/08/02 03:01:31;;;;;;;2.72;1.00;;;;;;;-148.56;100.00;61375.16;4943761;28;20030;-26
2022/08/02 03:03:59;;;;;;;2.15;1.13;;;;;;;-148.56;100.00;61375.16;4947384;28;20117;-29
2022/08/02 03:06:24;;;;;;;1.75;1.00;;;;;;;-148.56;100.00;61375.16;4947718;28;20065;-30
2022/08/02 03:08:50;;;;;;;0.93;0.90;;;;;;;-148.56;100.00;61375.16;4945509;28;20507;-27
2022/08/02 03:11:16;;;;;;;4.03;1.00;;;;;;;-148.56;100.00;61375.16;4934823;28;20046;-31
2022/08/02 03:13:41;;;;;;;3.70;1.02;;;;;;;-148.56;100.00;61375.16;4938280;28;20102;-25
2022/08/02 03:16:07;;;;;;;3.35;0.93;;;;;;;-148.56;100.00;61375.16;4941074;28;20030;-28
2022/08/02 03:18:39;;;;;;;2.85;1.40;;;;;;;-148.56;100.00;61375.16;4945436;28;20058;-32
2022/08/02 03:21:10;;;;;;;1.90;1.10;;;;;;;-148.56;100.00;61375.16;4948264;28;20918;-28
2022/08/02 03:23:36;;;;;;;2.17;1.17;;;;;;;-148.56;100.00;61375.16;4948529;28;20069;-26
2022/08/02 03:26:01;;;;;;;3.30;0.88;;;;;;;-148.56;100.00;61375.16;4946631;28;20578;-29
2022/08/02 03:28:26;;;;;;;1.80;1.25;;;;;;;-148.56;100.00;61375.16;4940874;28;20726;-31
2022/08/02 03:30:52;;;;;;;2.72;0.90;;;;;;;-148.56;100.00;61375.16;4944171;28;20039;-26
2022/08/02 03:33:18;;;;;;;2.60;1.00;;;;;;;-148.56;100.00;61375.16;4940502;28;20323;-30
2022/08/02 03:35:44;;;;;;;1.10;0.93;;;;;;;-148.56;100.00;61375.16;4944245;28;20086;-26
2022/08/02 03:38:10;;;;;;;2.50;1.02;;;;;;;-148.56;100.00;61375.16;4943921;28;20030;-30
2022/08/02 03:40:35;;;;;;;1.83;1.10;;;;;;;-148.56;100.00;61375.16;4944247;28;20124;-33
2022/08/02 03:43:01;;;;;;;4.30;1.25;;;;;;;-148.56;100.00;61375.16;4939039;28;20081;-28
2022/08/02 03:45:26;;;;;;;2.15;0.98;;;;;;;-148.56;100.00;61375.16;4940538;28;20157;-29
2022/08/02 03:47:51;;;;;;;3.58;1.17;;;;;;;-148.56;100.00;61375.16;4942833;28;20034;-28
2022/08/02 03:50:17;;;;;;;1.77;0.82;;;;;;;-148.56;100.00;61375.16;4943692;28;20080;-29
2022/08/02 03:52:44;;;;;;;1.80;1.10;;;;;;;-148.56;100.00;61375.16;4935573;28;20511;-28
2022/08/02 03:55:10;;;;;;;1.60;0.90;;;;;;;-148.56;100.00;61375.16;4941414;28;20092;-29
2022/08/02 03:57:41;;;;;;;2.67;1.00;;;;;;;-148.56;100.00;61375.16;4937488;28;20030;-29
2022/08/02 04:00:08;;;;;;;1.38;1.02;;;;;;;-148.56;100.00;61375.16;4945117;28;20077;-29
2022/08/02 04:02:34;;;;;;;1.73;1.00;;;;;;;-148.56;100.00;61375.16;4942570;28;20034;-33
2022/08/02 04:05:00;;;;;;;1.70;0.90;;;;;;;-148.56;100.00;61375.16;4946371;28;20022;-28
2022/08/02 04:07:25;;;;;;;1.45;0.93;;;;;;;-148.56;100.00;61375.16;4944035;28;20098;-31
2022/08/02 04:09:50;;;;;;;1.67;1.02;;;;;;;-148.56;100.00;61375.16;4945828;28;20562;-26
2022/08/02 04:12:16;;;;;;;1.65;1.02;;;;;;;-148.56;100.00;61375.16;4944601;28;20058;-33
2022/08/02 04:14:41;;;;;;;0.95;0.85;;;;;;;-148.56;100.00;61375.16;4937058;28;20030;-26
2022/08/02 04:17:08;;;;;;;1.13;0.82;;;;;;;-148.56;100.00;61375.16;4942864;28;20061;-27
2022/08/02 04:19:46;;;;;;;1.60;0.80;;;;;;;-148.56;100.00;61375.16;4931204;28;20030;-29
2022/08/02 04:22:24;;;;;;;2.70;1.00;;;;;;;-148.56;100.00;61375.16;4943747;28;20022;-32
2022/08/02 04:24:56;;;;;;;5.13;1.08;;;;;;;-148.56;100.00;61375.16;4941800;28;20069;-29
2022/08/02 04:27:21;;;;;;;1.73;1.00;;;;;;;-148.56;100.00;61375.16;4941077;28;20037;-28
2022/08/02 04:29:47;;;;;;;1.10;0.80;;;;;;;-148.56;100.00;61375.16;4927373;28;20114;-31
2022/08/02 04:32:12;;;;;;;3.25;1.10;;;;;;;-148.56;100.00;61375.16;4942899;28;20765;-29
2022/08/02 04:34:37;;;;;;;1.70;1.10;;;;;;;-148.56;100.00;61375.16;4960979;28;20034;-28
2022/08/02 04:37:03;;;;;;;2.08;0.80;;;;;;;-148.56;100.00;61375.16;4944016;28;21013;-30
2022/08/02 04:39:28;;;;;;;1.52;1.00;;;;;;;-148.56;100.00;61375.16;4945818;28;20089;-31
2022/08/02 04:41:54;;;;;;;1.02;0.82;;;;;;;-148.56;100.00;61375.16;4942335;28;20041;-24
2022/08/02 04:44:19;;;;;;;1.10;0.90;;;;;;;-148.56;100.00;61375.16;4941829;28;20152;-29
2022/08/02 04:46:44;;;;;;;2.38;1.00;;;;;;;-148.56;100.00;61375.16;4945227;28;20030;-27
2022/08/02 04:49:10;;;;;;;1.88;1.02;;;;;;;-148.56;100.00;61375.16;4961981;28;20406;-30
2022/08/02 04:51:36;;;;;;;1.80;0.90;;;;;;;-148.56;100.00;61375.16;4946912;28;20049;-27
2022/08/02 04:54:03;;;;;;;1.08;0.90;;;;;;;-148.56;100.00;61375.16;4943753;28;20039;-31
2022/08/02 04:56:28;;;;;;;2.38;1.05;;;;;;;-148.56;100.00;61375.16;4945677;28;20044;-31
2022/08/02 04:58:53;;;;;;;2.97;1.15;;;;;;;-148.56;100.00;61375.16;4944237;28;20030;-28
2022/08/02 05:01:19;;;;;;;4.05;0.90;;;;;;;-148.56;100.00;61375.16;4936424;28;20656;-25
2022/08/02 05:03:44;;;;;;;1.00;0.82;;;;;;;-148.56;100.00;61375.16;4947110;28;20050;-27
2022/08/02 05:06:10;;;;;;;2.33;0.90;;;;;;;-148.56;100.00;61375.16;4936413;28;20050;-28
2022/08/02 05:08:35;;;;;;;2.97;1.20;;;;;;;-148.56;100.00;61375.16;4945832;28;20237;-30
2022/08/02 05:11:00;;;;;;;1.20;0.88;;;;;;;-148.56;100.00;61375.16;4940069;28;20050;-29
2022/08/02 05:13:26;;;;;;;2.42;0.90;;;;;;;-148.56;100.00;61375.16;4941545;28;20069;-28
2022/08/02 05:15:51;;;;;;;3.67;1.00;;;;;;;-148.56;100.00;61375.16;4943752;28;20874;-31
2022/08/02 05:18:16;;;;;;;4.47;0.93;;;;;;;-148.56;100.00;61375.16;4947140;28;20034;-31
2022/08/02 05:20:42;;;;;;;3.97;0.90;;;;;;;-148.56;100.00;61375.16;4939949;28;20519;-27
2022/08/02 05:23:07;;;;;;;1.83;0.88;;;;;;;-148.56;100.00;61375.16;4940859;28;20027;-29
2022/08/02 05:25:33;;;;;;;1.50;1.20;;;;;;;-148.56;100.00;61375.16;4941412;28;20072;-26
2022/08/02 05:27:58;;;;;;;4.18;0.88;;;;;;;-148.56;100.00;61375.16;4950878;28;20310;-29
2022/08/02 05:30:23;;;;;;;1.58;1.10;;;;;;;-148.56;100.00;61375.16;4946287;28;20950;-30
2022/08/02 05:32:51;;;;;;;3.95;1.00;;;;;;;-148.56;100.00;61375.16;4940328;28;20161;-30
2022/08/02 05:35:18;;;;;;;2.28;0.90;;;;;;;-148.56;100.00;61375.16;4940162;28;20042;-29
2022/08/02 05:37:44;;;;;;;1.85;1.27;;;;;;;-148.56;100.00;61375.16;4940025;28;20789;-29
2022/08/02 05:40:10;;;;;;;1.63;0.90;;;;;;;-148.56;100.00;61375.16;4940070;28;20070;-27
2022/08/02 05:42:35;;;;;;;2.50;0.90;;;;;;;-148.56;100.00;61375.16;4944986;28;20034;-26
2022/08/02 05:45:00;;;;;;;1.45;0.90;;;;;;;-148.56;100.00;61375.16;4940344;28;20074;-32
2022/08/02 05:47:26;;;;;;;3.95;0.88;;;;;;;-148.56;100.00;61375.16;4941402;28;20027;-30
2022/08/02 05:49:52;;;;;;;3.15;1.00;;;;;;;-148.56;100.00;61375.16;4942194;28;20165;-30
2022/08/02 05:52:18;;;;;;;1.13;0.93;;;;;;;-148.56;100.00;61375.16;4940521;28;21028;-34
2022/08/02 05:54:48;;;;;;;4.70;1.00;;;;;;;-148.56;100.00;61375.16;4932003;28;20065;-30
2022/08/02 05:57:34;;;;;;;4.30;1.35;;;;;;;-148.56;100.00;61375.16;4936968;28;20184;-29
2022/08/02 06:00:09;;;;;;;5.07;1.20;;;;;;;-148.56;100.00;61375.16;4943152;28;20089;-31
2022/08/02 06:02:42;;;;;;;3.17;1.15;;;;;;;-148.56;100.00;61375.16;4943830;28;20034;-28
2022/08/02 06:05:15;;;;;;;1.95;1.02;;;;;;;-148.56;100.00;61375.16;4933532;28;20034;-28
2022/08/02 06:07:41;;;;;;;3.58;1.42;;;;;;;-148.56;100.00;61375.16;4937884;28;20110;-27
2022/08/02 06:10:07;;;;;;;6.05;1.55;;;;;;;-148.56;100.00;61375.16;4947536;28;20157;-33
2022/08/02 06:12:37;;;;;;;6.00;1.58;;;;;;;-148.56;100.00;61375.16;4943978;28;20081;-28
2022/08/02 06:15:03;;;;;;;8.23;1.70;;;;;;;-148.56;100.00;61375.16;4938010;28;20044;-29
2022/08/02 06:17:29;;;;;;;6.70;1.50;;;;;;;-148.56;100.00;61375.16;4938581;28;20034;-28
2022/08/02 06:19:56;;;;;;;4.85;1.35;;;;;;;-148.56;100.00;61375.16;4939471;28;20045;-27
2022/08/02 06:22:24;;;;;;;12.98;1.73;;;;;;;-148.56;100.00;61375.16;4940162;28;20123;-26
2022/08/02 06:24:50;;;;;;;10.73;2.10;;;;;;;-148.56;100.00;61375.16;4936458;28;20034;-27
2022/08/02 06:27:15;;;;;;;7.00;1.42;;;;;;;-148.56;100.00;61375.16;4921649;28;20053;-26
2022/08/02 06:29:45;;;;;;;6.18;1.55;;;;;;;-148.56;100.00;61375.16;4942920;28;20096;-30
2022/08/02 06:32:11;;;;;;;7.72;1.50;;;;;;;-148.56;100.00;61375.16;4925466;28;20744;-30
2022/08/02 06:34:39;;;;;;;5.18;1.27;;;;;;;-148.56;100.00;61375.16;4944150;28;20046;-29
2022/08/02 06:37:26;;;;;;;9.68;1.50;;;;;;;-148.56;100.00;61375.16;4941814;28;20072;-28
2022/08/02 06:39:58;;;;;;;4.82;1.60;;;;;;;-148.56;100.00;61375.16;4944408;28;20371;-27
2022/08/02 06:42:41;;;;;;;6.97;1.38;;;;;;;-148.56;100.00;61375.16;4940983;28;20030;-27
2022/08/02 06:45:07;;;;;;;11.38;2.10;;;;;;;-148.56;100.00;61375.16;4965499;28;20742;-27
2022/08/02 06:47:33;;;;;;;12.13;2.65;;;;;;;-148.56;100.00;61375.16;4943711;28;20037;-35
2022/08/02 06:49:58;;;;;;;5.22;2.00;;;;;;;-148.56;100.00;61375.16;4943492;28;20117;-31
2022/08/02 06:52:25;;;;;;;9.27;2.35;;;;;;;-148.56;100.00;61375.16;4941978;28;20356;-32
2022/08/02 06:54:50;;;;;;;7.40;2.20;;;;;;;-148.56;100.00;61375.16;4924382;28;24133;-30
2022/08/02 06:57:15;;;;;;;7.55;2.60;;;;;;;-148.56;100.00;61375.16;4945511;28;20034;-26
2022/08/02 06:59:41;;;;;;;8.40;2.55;;;;;;;-148.56;100.00;61375.16;4944879;28;20042;-30
2022/08/02 07:02:06;;;;;;;10.18;2.58;;;;;;;-148.56;100.00;61375.16;4934684;28;20071;-26
2022/08/02 07:04:33;;;;;;;4.03;2.00;;;;;;;-148.56;100.00;61375.16;4944817;28;20169;-27
2022/08/02 07:06:59;;;;;;;9.00;2.40;;;;;;;-148.56;100.00;61375.16;4940808;28;21303;-30
2022/08/02 07:09:25;;;;;;;5.63;2.10;;;;;;;-148.56;100.00;61375.16;4943120;28;20403;-31
2022/08/02 07:11:50;;;;;;;7.07;2.17;;;;;;;-148.56;100.00;61375.16;4946676;28;20582;-36
2022/08/02 07:14:15;;;;;;;8.55;2.42;;;;;;;-148.56;100.00;61375.16;4948579;28;20037;-34
2022/08/02 07:16:41;;;;;;;8.82;2.30;;;;;;;-148.56;100.00;61375.16;4944449;28;20030;-27
2022/08/02 07:19:06;;;;;;;6.97;2.50;;;;;;;-148.56;100.00;61375.16;4945865;28;20026;-28
2022/08/02 07:21:32;;;;;;;5.57;2.45;;;;;;;-148.56;100.00;61375.16;4944644;28;20081;-28
2022/08/02 07:23:57;;;;;;;6.25;2.22;;;;;;;-148.56;100.00;61375.16;4945053;28;20022;-30
2022/08/02 07:26:22;;;;;;;7.05;2.53;;;;;;;-148.56;100.00;61375.16;4946215;28;20037;-28
2022/08/02 07:28:48;;;;;;;5.65;2.20;;;;;;;-148.56;100.00;61375.16;4943648;28;20049;-30
2022/08/02 07:31:13;;;;;;;7.25;2.30;;;;;;;-148.56;100.00;61375.16;4948318;28;20236;-32
2022/08/02 07:33:39;;;;;;;7.50;2.50;;;;;;;-148.56;100.00;61375.16;4939410;28;20123;-32
2022/08/02 07:36:04;;;;;;;9.85;2.58;;;;;;;-148.56;100.00;61375.16;4941684;28;20018;-25
2022/08/02 07:38:30;;;;;;;4.50;2.28;;;;;;;-148.56;100.00;61375.16;4944439;28;20506;-32
2022/08/02 07:40:55;;;;;;;9.18;2.67;;;;;;;-148.56;100.00;61375.16;4942178;28;20081;-27
2022/08/02 07:43:20;;;;;;;4.30;2.10;;;;;;;-148.56;100.00;61375.16;4940791;28;20056;-28
2022/08/02 07:45:46;;;;;;;11.52;3.17;;;;;;;-148.56;100.00;61375.16;4943103;28;20685;-28
2022/08/02 07:48:11;;;;;;;9.35;2.63;;;;;;;-148.56;100.00;61375.16;4940513;28;20038;-28
2022/08/02 07:50:37;;;;;;;6.85;2.75;;;;;;;-148.56;100.00;61375.16;4941409;28;20921;-26
2022/08/02 07:53:02;;;;;;;10.65;2.70;;;;;;;-148.56;100.00;61375.16;4944781;28;20211;-26
2022/08/02 07:55:27;;;;;;;5.15;2.08;;;;;;;-148.56;100.00;61375.16;4943643;28;20634;-25
2022/08/02 07:57:53;;;;;;;5.85;2.70;;;;;;;-148.56;100.00;61375.16;4943592;28;20064;-27
2022/08/02 08:00:18;;;;;;;11.07;2.55;;;;;;;-148.56;100.00;61375.16;4943640;28;20058;-30
2022/08/02 08:02:44;;;;;;;12.13;2.38;;;;;;;-148.56;100.00;61375.16;4939731;28;20027;-30
2022/08/02 08:05:10;;;;;;;13.70;2.95;;;;;;;-148.56;100.00;61375.16;4941917;28;20034;-28
2022/08/02 08:07:35;;;;;;;11.50;3.15;;;;;;;-148.56;100.00;61375.16;4944867;28;20026;-29
2022/08/02 08:10:00;;;;;;;10.25;3.15;;;;;;;-148.56;100.00;61375.16;4940851;28;20430;-29
2022/08/02 08:12:26;;;;;;;11.95;3.08;;;;;;;-148.56;100.00;61375.16;4945764;28;20035;-28
2022/08/02 08:14:51;;;;;;;8.70;2.70;;;;;;;-148.56;100.00;61375.16;4941420;28;20038;-32
2022/08/02 08:17:17;;;;;;;8.98;2.83;;;;;;;-148.56;100.00;61375.16;4940334;28;20034;-29
2022/08/02 08:19:42;;;;;;;9.50;2.83;;;;;;;-148.56;100.00;61375.16;4931320;28;20034;-32
2022/08/02 08:22:08;;;;;;;7.68;2.70;;;;;;;-148.56;100.00;61375.16;4927648;28;20034;-25
2022/08/02 08:24:33;;;;;;;11.50;2.65;;;;;;;-148.56;100.00;61375.16;4936953;28;20030;-31
2022/08/02 08:26:58;;;;;;;9.88;2.97;;;;;;;-148.56;100.00;61375.16;4939703;28;20088;-28
2022/08/02 08:29:25;;;;;;;12.40;2.42;;;;;;;-148.56;100.00;61375.16;4936914;28;20235;-30
2022/08/02 08:31:50;;;;;;;6.88;2.40;;;;;;;-148.56;100.00;61375.16;4941467;28;20030;-28
2022/08/02 08:34:16;;;;;;;8.90;2.47;;;;;;;-148.56;100.00;61375.16;4939560;28;20038;-26
2022/08/02 08:36:41;;;;;;;8.00;2.22;;;;;;;-148.56;100.00;61375.16;4936061;28;20853;-29
2022/08/02 08:39:07;;;;;;;9.30;2.40;;;;;;;-148.56;100.00;61375.16;4932825;28;20738;-29
2022/08/02 08:41:34;;;;;;;10.93;2.80;;;;;;;-148.56;100.00;61375.16;4947121;28;20032;-29
2022/08/02 08:43:59;;;;;;;10.18;3.08;;;;;;;-148.56;100.00;61375.16;4934533;28;20030;-27
2022/08/02 08:46:29;;;;;;;7.75;3.85;;;;;;;-148.56;100.00;61375.16;4937605;28;20188;-27
2022/08/02 08:49:05;;;;;;;7.20;3.92;;;;;;;-148.56;100.00;61375.16;4944981;28;20030;-29
2022/08/02 08:51:40;;;;;;;8.27;3.85;;;;;;;-148.56;100.00;61375.16;4939550;28;20033;-29
2022/08/02 08:54:06;;;;;;;9.38;3.72;;;;;;;-148.56;100.00;61375.16;4939937;28;20034;-26
2022/08/02 08:56:33;;;;;;;7.40;3.80;;;;;;;-148.56;100.00;61375.16;4915484;28;20022;-28
2022/08/02 08:58:59;;;;;;;7.32;3.47;;;;;;;-148.56;100.00;61375.16;4929514;28;20345;-28
2022/08/02 09:01:24;;;;;;;7.63;3.33;;;;;;;-148.56;100.00;61375.16;4937851;28;20030;-30
2022/08/02 09:03:49;;;;;;;11.60;3.58;;;;;;;-148.56;100.00;61375.16;4931746;28;20872;-31
2022/08/02 09:06:15;;;;;;;5.13;3.15;;;;;;;-148.56;100.00;61375.16;4931313;28;20030;-25
2022/08/02 09:08:40;;;;;;;5.40;2.90;;;;;;;-148.56;100.00;61375.16;4942607;28;22095;-28
2022/08/02 09:11:13;;;;;;;6.55;3.00;;;;;;;-148.56;100.00;61375.16;4937257;28;20537;-32
2022/08/02 09:13:39;;;;;;;8.70;3.28;;;;;;;-148.56;100.00;61375.16;4937665;28;20050;-30
2022/08/02 09:16:05;;;;;;;6.35;2.92;;;;;;;-148.56;100.00;61375.16;4917442;28;20045;-27
2022/08/02 09:18:38;;;;;;;5.03;3.00;;;;;;;-148.56;100.00;61375.16;4940728;28;21086;-29
2022/08/02 09:21:05;;;;;;;8.40;3.40;;;;;;;-148.56;100.00;61375.16;4937613;28;20022;-27
2022/08/02 09:23:35;;;;;;;5.55;2.83;;;;;;;-148.56;100.00;61375.16;4935414;28;20038;-27
2022/08/02 09:26:07;;;;;;;7.65;3.10;;;;;;;-148.56;100.00;61375.16;4936709;28;20042;-31
2022/08/02 09:28:34;;;;;;;4.63;2.70;;;;;;;-148.56;100.00;61375.16;4945853;28;20809;-33
2022/08/02 09:31:04;;;;;;;7.40;2.83;;;;;;;-148.56;100.00;61375.16;4940653;28;20037;-28
2022/08/02 09:33:30;;;;;;;4.53;2.60;;;;;;;-148.56;100.00;61375.16;4939565;28;20026;-28
2022/08/02 09:36:03;;;;;;;6.97;2.90;;;;;;;-148.56;100.00;61375.16;4932807;28;21173;-26
2022/08/02 09:38:29;;;;;;;6.88;2.70;;;;;;;-148.56;100.00;61375.16;4933850;28;20718;-27
2022/08/02 09:40:54;;;;;;;6.60;2.70;;;;;;;-148.56;100.00;61375.16;4938227;28;20182;-26
2022/08/02 09:43:20;;;;;;;4.78;2.65;;;;;;;-148.56;100.00;61375.16;4944325;28;20030;-30
2022/08/02 09:45:45;;;;;;;4.40;2.58;;;;;;;-148.56;100.00;61375.16;4938589;28;20041;-26
2022/08/02 09:48:11;;;;;;;4.00;2.50;;;;;;;-148.56;100.00;61375.16;4931208;28;20038;-26
2022/08/02 09:50:37;;;;;;;8.00;2.60;;;;;;;-148.56;100.00;61375.16;4929007;28;20146;-31
2022/08/02 09:53:03;;;;;;;8.20;2.80;;;;;;;-148.56;100.00;61375.16;4940592;28;20033;-28
2022/08/02 09:55:28;;;;;;;5.60;2.58;;;;;;;-148.56;100.00;61375.16;4940304;28;20451;-26
2022/08/02 09:57:53;;;;;;;8.65;2.70;;;;;;;-148.56;100.00;61375.16;4942422;28;20120;-25
2022/08/02 10:00:19;;;;;;;5.38;2.72;;;;;;;-148.56;100.00;61375.16;4939573;28;20030;-28
2022/08/02 10:03:10;;;;;;;11.57;2.80;;;;;;;-148.56;100.00;61375.16;4943814;28;20038;-26
2022/08/02 10:05:48;;;;;;;5.30;2.58;;;;;;;-148.56;100.00;61375.16;4932516;28;20034;-26
2022/08/02 10:08:14;;;;;;;3.97;2.50;;;;;;;-148.56;100.00;61375.16;4936638;28;20385;-29
2022/08/02 10:10:40;;;;;;;5.07;2.45;;;;;;;-148.56;100.00;61375.16;4937531;28;21205;-27
2022/08/02 10:13:06;;;;;;;3.38;2.30;;;;;;;-148.56;100.00;61375.16;4931834;28;20022;-27
2022/08/02 10:15:31;;;;;;;3.50;2.53;;;;;;;-148.56;100.00;61375.16;4943791;28;20485;-25
2022/08/02 10:17:57;;;;;;;6.00;2.30;;;;;;;-148.56;100.00;61375.16;4946006;28;20030;-28
2022/08/02 10:20:22;;;;;;;4.63;2.35;;;;;;;-148.56;100.00;61375.16;4942344;28;20037;-30
2022/08/02 10:22:47;;;;;;;4.05;2.42;;;;;;;-148.56;100.00;61375.16;4931791;28;20034;-26
2022/08/02 10:25:13;;;;;;;5.07;2.60;;;;;;;-148.56;100.00;61375.16;4941569;28;20072;-28
2022/08/02 10:27:38;;;;;;;4.28;2.38;;;;;;;-148.56;100.00;61375.16;4943301;28;20553;-29
2022/08/02 10:30:04;;;;;;;5.03;2.00;;;;;;;-148.56;100.00;61375.16;4941328;28;20038;-26
2022/08/02 10:32:36;;;;;;;4.00;2.40;;;;;;;-148.56;100.00;61375.16;4940881;28;20022;-27
2022/08/02 10:35:09;;;;;;;2.97;2.38;;;;;;;-148.56;100.00;61375.16;4959248;28;20120;-25
2022/08/02 10:37:36;;;;;;;2.85;2.35;;;;;;;-148.56;100.00;61375.16;4945225;28;20034;-30
2022/08/02 10:40:01;;;;;;;4.78;2.65;;;;;;;-148.56;100.00;61375.16;4940534;28;20053;-26
2022/08/02 10:42:47;;;;;;;6.70;2.42;;;;;;;-148.56;100.00;61375.16;4944953;28;20376;-30
2022/08/02 10:45:17;;;;;;;4.40;2.40;;;;;;;-148.56;100.00;61375.16;4944646;28;20030;-30
2022/08/02 10:48:10;;;;;;;3.10;2.22;;;;;;;-148.56;100.00;61375.16;4940601;28;20026;-34
2022/08/02 10:50:44;;;;;;;4.75;2.45;;;;;;;-148.56;100.00;61375.16;4942032;28;20045;-29
2022/08/02 10:53:25;;;;;;;3.40;2.40;;;;;;;-148.56;100.00;61375.16;4935118;28;20038;-27
2022/08/02 10:55:51;;;;;;;2.88;2.33;;;;;;;-148.56;100.00;61375.16;4936984;28;20225;-32
2022/08/02 10:58:18;;;;;;;3.28;2.40;;;;;;;-148.56;100.00;61375.16;4934493;28;20241;-25
2022/08/02 11:00:43;;;;;;;4.70;2.40;;;;;;;-148.56;100.00;61375.16;4940496;28;20117;-26
2022/08/02 11:03:27;;;;;;;3.47;2.20;;;;;;;-148.56;100.00;61375.16;4942750;28;20060;-26
2022/08/02 11:06:17;;;;;;;7.57;2.55;;;;;;;-148.56;100.00;61375.16;4936359;28;20127;-24
2022/08/02 11:08:42;;;;;;;3.63;2.28;;;;;;;-148.56;100.00;61375.16;4941385;28;20124;-26
2022/08/02 11:11:08;;;;;;;2.75;2.00;;;;;;;-148.56;100.00;61375.16;4943867;28;20705;-30